sensor_id;sensor_type;location;lat;lon;timestamp;P1;durP1;ratioP1;P2;durP2;ratioP2
10114;SDS011;5097;43.260;27.812;2022-07-10T00:01:52;3.33;;;2.60;;
10114;SDS011;5097;43.260;27.812;2022-07-10T00:04:16;3.25;;;2.40;;
10114;SDS011;5097;43.260;27.812;2022-07-10T00:06:41;2.47;;;2.30;;
10114;SDS011;5097;43.260;27.812;2022-07-10T00:09:09;2.50;;;2.30;;
10114;SDS011;5097;43.260;27.812;2022-07-10T00:11:33;1.85;;;1.75;;
10114;SDS011;5097;43.260;27.812;2022-07-10T00:13:57;2.42;;;2.20;;
10114;SDS011;5097;43.260;27.812;2022-07-10T00:16:23;2.30;;;2.20;;
10114;SDS011;5097;43.260;27.812;2022-07-10T00:18:47;2.65;;;2.45;;
10114;SDS011;5097;43.260;27.812;2022-07-10T00:21:11;2.65;;;2.45;;
10114;SDS011;5097;43.260;27.812;2022-07-10T00:23:35;2.97;;;2.22;;
10114;SDS011;5097;43.260;27.812;2022-07-10T00:25:59;2.05;;;1.95;;
10114;SDS011;5097;43.260;27.812;2022-07-10T00:28:23;2.20;;;2.00;;
10114;SDS011;5097;43.260;27.812;2022-07-10T00:30:48;1.90;;;1.80;;
10114;SDS011;5097;43.260;27.812;2022-07-10T00:33:13;2.40;;;1.75;;
10114;SDS011;5097;43.260;27.812;2022-07-10T00:35:37;3.33;;;2.40;;
10114;SDS011;5097;43.260;27.812;2022-07-10T00:38:01;2.35;;;2.20;;
10114;SDS011;5097;43.260;27.812;2022-07-10T00:40:25;2.45;;;2.25;;
10114;SDS011;5097;43.260;27.812;2022-07-10T00:42:50;2.38;;;2.20;;
10114;SDS011;5097;43.260;27.812;2022-07-10T00:45:14;1.98;;;1.88;;
10114;SDS011;5097;43.260;27.812;2022-07-10T00:47:39;2.80;;;2.38;;
10114;SDS011;5097;43.260;27.812;2022-07-10T00:50:05;2.40;;;2.20;;
10114;SDS011;5097;43.260;27.812;2022-07-10T00:52:30;2.85;;;2.13;;
10114;SDS011;5097;43.260;27.812;2022-07-10T00:54:55;2.47;;;2.28;;
10114;SDS011;5097;43.260;27.812;2022-07-10T00:57:22;5.28;;;2.40;;
10114;SDS011;5097;43.260;27.812;2022-07-10T00:59:47;2.72;;;2.47;;
10114;SDS011;5097;43.260;27.812;2022-07-10T01:02:13;2.67;;;1.90;;
10114;SDS011;5097;43.260;27.812;2022-07-10T01:04:38;3.10;;;2.78;;
10114;SDS011;5097;43.260;27.812;2022-07-10T01:07:04;2.28;;;2.17;;
10114;SDS011;5097;43.260;27.812;2022-07-10T01:09:28;5.68;;;2.25;;
10114;SDS011;5097;43.260;27.812;2022-07-10T01:11:52;1.95;;;1.85;;
10114;SDS011;5097;43.260;27.812;2022-07-10T01:14:17;2.72;;;2.53;;
10114;SDS011;5097;43.260;27.812;2022-07-10T01:16:41;2.10;;;2.00;;
10114;SDS011;5097;43.260;27.812;2022-07-10T01:19:05;4.10;;;2.42;;
10114;SDS011;5097;43.260;27.812;2022-07-10T01:21:31;1.98;;;1.88;;
10114;SDS011;5097;43.260;27.812;2022-07-10T01:23:56;2.83;;;2.20;;
10114;SDS011;5097;43.260;27.812;2022-07-10T01:26:21;5.65;;;2.42;;
10114;SDS011;5097;43.260;27.812;2022-07-10T01:28:47;3.20;;;2.47;;
10114;SDS011;5097;43.260;27.812;2022-07-10T01:31:12;2.50;;;2.10;;
10114;SDS011;5097;43.260;27.812;2022-07-10T01:33:36;2.42;;;2.30;;
10114;SDS011;5097;43.260;27.812;2022-07-10T01:36:00;2.60;;;2.45;;
10114;SDS011;5097;43.260;27.812;2022-07-10T01:38:26;4.45;;;2.40;;
10114;SDS011;5097;43.260;27.812;2022-07-10T01:40:50;2.38;;;2.17;;
10114;SDS011;5097;43.260;27.812;2022-07-10T01:43:14;5.07;;;2.85;;
10114;SDS011;5097;43.260;27.812;2022-07-10T01:45:38;4.60;;;2.92;;
10114;SDS011;5097;43.260;27.812;2022-07-10T01:48:02;2.67;;;2.47;;
10114;SDS011;5097;43.260;27.812;2022-07-10T01:50:26;3.28;;;2.90;;
10114;SDS011;5097;43.260;27.812;2022-07-10T01:52:51;2.63;;;2.42;;
10114;SDS011;5097;43.260;27.812;2022-07-10T01:55:17;4.32;;;3.83;;
10114;SDS011;5097;43.260;27.812;2022-07-10T01:57:41;2.78;;;2.67;;
10114;SDS011;5097;43.260;27.812;2022-07-10T02:00:06;3.67;;;2.53;;
10114;SDS011;5097;43.260;27.812;2022-07-10T02:02:34;4.32;;;2.58;;
10114;SDS011;5097;43.260;27.812;2022-07-10T02:04:58;2.13;;;2.03;;
10114;SDS011;5097;43.260;27.812;2022-07-10T02:07:21;2.47;;;2.22;;
10114;SDS011;5097;43.260;27.812;2022-07-10T02:09:48;2.25;;;2.08;;
10114;SDS011;5097;43.260;27.812;2022-07-10T02:12:14;2.67;;;2.47;;
10114;SDS011;5097;43.260;27.812;2022-07-10T02:14:38;4.88;;;2.47;;
10114;SDS011;5097;43.260;27.812;2022-07-10T02:17:03;2.65;;;2.45;;
10114;SDS011;5097;43.260;27.812;2022-07-10T02:19:28;4.63;;;2.70;;
10114;SDS011;5097;43.260;27.812;2022-07-10T02:21:53;2.97;;;2.67;;
10114;SDS011;5097;43.260;27.812;2022-07-10T02:24:17;2.65;;;2.42;;
10114;SDS011;5097;43.260;27.812;2022-07-10T02:26:41;2.60;;;2.40;;
10114;SDS011;5097;43.260;27.812;2022-07-10T02:29:06;2.38;;;2.13;;
10114;SDS011;5097;43.260;27.812;2022-07-10T02:31:30;2.45;;;2.28;;
10114;SDS011;5097;43.260;27.812;2022-07-10T02:33:57;2.88;;;2.65;;
10114;SDS011;5097;43.260;27.812;2022-07-10T02:36:21;3.15;;;2.80;;
10114;SDS011;5097;43.260;27.812;2022-07-10T02:38:45;3.03;;;2.58;;
10114;SDS011;5097;43.260;27.812;2022-07-10T02:41:09;2.95;;;2.72;;
10114;SDS011;5097;43.260;27.812;2022-07-10T02:43:33;2.55;;;2.38;;
10114;SDS011;5097;43.260;27.812;2022-07-10T02:45:59;3.47;;;2.80;;
10114;SDS011;5097;43.260;27.812;2022-07-10T02:48:24;3.05;;;2.85;;
10114;SDS011;5097;43.260;27.812;2022-07-10T02:50:48;2.45;;;2.30;;
10114;SDS011;5097;43.260;27.812;2022-07-10T02:53:12;2.60;;;2.38;;
10114;SDS011;5097;43.260;27.812;2022-07-10T02:55:36;3.92;;;2.78;;
10114;SDS011;5097;43.260;27.812;2022-07-10T02:58:00;2.60;;;2.45;;
10114;SDS011;5097;43.260;27.812;2022-07-10T03:00:26;2.70;;;2.50;;
10114;SDS011;5097;43.260;27.812;2022-07-10T03:02:51;2.65;;;2.40;;
10114;SDS011;5097;43.260;27.812;2022-07-10T03:05:15;2.45;;;2.25;;
10114;SDS011;5097;43.260;27.812;2022-07-10T03:07:40;2.70;;;2.50;;
10114;SDS011;5097;43.260;27.812;2022-07-10T03:10:04;2.78;;;2.58;;
10114;SDS011;5097;43.260;27.812;2022-07-10T03:12:30;2.53;;;2.33;;
10114;SDS011;5097;43.260;27.812;2022-07-10T03:14:54;2.92;;;2.55;;
10114;SDS011;5097;43.260;27.812;2022-07-10T03:17:18;3.15;;;2.85;;
10114;SDS011;5097;43.260;27.812;2022-07-10T03:19:43;2.50;;;2.30;;
10114;SDS011;5097;43.260;27.812;2022-07-10T03:22:07;2.50;;;2.30;;
10114;SDS011;5097;43.260;27.812;2022-07-10T03:24:31;2.78;;;2.58;;
10114;SDS011;5097;43.260;27.812;2022-07-10T03:26:56;2.65;;;2.45;;
10114;SDS011;5097;43.260;27.812;2022-07-10T03:29:20;5.25;;;2.90;;
10114;SDS011;5097;43.260;27.812;2022-07-10T03:31:44;2.90;;;2.55;;
10114;SDS011;5097;43.260;27.812;2022-07-10T03:34:08;2.97;;;2.78;;
10114;SDS011;5097;43.260;27.812;2022-07-10T03:36:35;2.75;;;2.55;;
10114;SDS011;5097;43.260;27.812;2022-07-10T03:38:59;2.63;;;2.42;;
10114;SDS011;5097;43.260;27.812;2022-07-10T03:41:22;3.15;;;2.95;;
10114;SDS011;5097;43.260;27.812;2022-07-10T03:43:46;3.83;;;2.40;;
10114;SDS011;5097;43.260;27.812;2022-07-10T03:46:11;2.80;;;2.40;;
10114;SDS011;5097;43.260;27.812;2022-07-10T03:48:35;2.83;;;2.60;;
10114;SDS011;5097;43.260;27.812;2022-07-10T03:51:00;2.92;;;2.72;;
10114;SDS011;5097;43.260;27.812;2022-07-10T03:53:25;10.40;;;2.80;;
10114;SDS011;5097;43.260;27.812;2022-07-10T03:55:50;2.58;;;2.35;;
10114;SDS011;5097;43.260;27.812;2022-07-10T03:58:14;2.78;;;2.40;;
10114;SDS011;5097;43.260;27.812;2022-07-10T04:00:38;3.70;;;2.53;;
10114;SDS011;5097;43.260;27.812;2022-07-10T04:03:05;2.85;;;2.65;;
10114;SDS011;5097;43.260;27.812;2022-07-10T04:05:30;2.83;;;2.63;;
10114;SDS011;5097;43.260;27.812;2022-07-10T04:07:56;2.55;;;2.35;;
10114;SDS011;5097;43.260;27.812;2022-07-10T04:10:23;2.70;;;2.50;;
10114;SDS011;5097;43.260;27.812;2022-07-10T04:12:48;8.30;;;3.25;;
10114;SDS011;5097;43.260;27.812;2022-07-10T04:15:12;2.58;;;2.30;;
10114;SDS011;5097;43.260;27.812;2022-07-10T04:17:36;3.38;;;3.03;;
10114;SDS011;5097;43.260;27.812;2022-07-10T04:20:00;2.60;;;2.40;;
10114;SDS011;5097;43.260;27.812;2022-07-10T04:22:25;3.35;;;3.10;;
10114;SDS011;5097;43.260;27.812;2022-07-10T04:24:49;4.05;;;2.40;;
10114;SDS011;5097;43.260;27.812;2022-07-10T04:27:15;3.95;;;2.85;;
10114;SDS011;5097;43.260;27.812;2022-07-10T04:29:39;2.90;;;2.47;;
10114;SDS011;5097;43.260;27.812;2022-07-10T04:32:04;2.75;;;2.55;;
10114;SDS011;5097;43.260;27.812;2022-07-10T04:34:29;2.67;;;2.58;;
10114;SDS011;5097;43.260;27.812;2022-07-10T04:36:55;3.17;;;2.88;;
10114;SDS011;5097;43.260;27.812;2022-07-10T04:39:19;3.67;;;2.42;;
10114;SDS011;5097;43.260;27.812;2022-07-10T04:41:44;3.97;;;2.90;;
10114;SDS011;5097;43.260;27.812;2022-07-10T04:44:09;2.50;;;2.40;;
10114;SDS011;5097;43.260;27.812;2022-07-10T04:46:33;4.78;;;2.92;;
10114;SDS011;5097;43.260;27.812;2022-07-10T04:48:57;2.47;;;2.30;;
10114;SDS011;5097;43.260;27.812;2022-07-10T04:51:22;2.70;;;2.50;;
10114;SDS011;5097;43.260;27.812;2022-07-10T04:53:46;5.30;;;3.20;;
10114;SDS011;5097;43.260;27.812;2022-07-10T04:56:10;3.35;;;2.40;;
10114;SDS011;5097;43.260;27.812;2022-07-10T04:58:35;10.30;;;3.38;;
10114;SDS011;5097;43.260;27.812;2022-07-10T05:01:01;2.67;;;2.47;;
10114;SDS011;5097;43.260;27.812;2022-07-10T05:03:25;2.25;;;2.10;;
10114;SDS011;5097;43.260;27.812;2022-07-10T05:05:50;2.65;;;2.45;;
10114;SDS011;5097;43.260;27.812;2022-07-10T05:08:14;2.90;;;2.63;;
10114;SDS011;5097;43.260;27.812;2022-07-10T05:10:38;3.67;;;2.47;;
10114;SDS011;5097;43.260;27.812;2022-07-10T05:13:03;3.20;;;2.63;;
10114;SDS011;5097;43.260;27.812;2022-07-10T05:15:27;4.93;;;2.65;;
10114;SDS011;5097;43.260;27.812;2022-07-10T05:17:53;2.78;;;2.58;;
10114;SDS011;5097;43.260;27.812;2022-07-10T05:20:18;2.50;;;2.40;;
10114;SDS011;5097;43.260;27.812;2022-07-10T05:22:43;3.00;;;2.65;;
10114;SDS011;5097;43.260;27.812;2022-07-10T05:25:07;2.50;;;2.40;;
10114;SDS011;5097;43.260;27.812;2022-07-10T05:27:31;2.92;;;2.72;;
10114;SDS011;5097;43.260;27.812;2022-07-10T05:29:56;3.17;;;2.90;;
10114;SDS011;5097;43.260;27.812;2022-07-10T05:32:20;2.92;;;2.72;;
10114;SDS011;5097;43.260;27.812;2022-07-10T05:34:46;2.80;;;2.60;;
10114;SDS011;5097;43.260;27.812;2022-07-10T05:37:11;4.72;;;2.83;;
10114;SDS011;5097;43.260;27.812;2022-07-10T05:39:35;3.40;;;2.42;;
10114;SDS011;5097;43.260;27.812;2022-07-10T05:41:59;3.05;;;2.60;;
10114;SDS011;5097;43.260;27.812;2022-07-10T05:44:23;2.70;;;2.50;;
10114;SDS011;5097;43.260;27.812;2022-07-10T05:46:47;2.63;;;2.42;;
10114;SDS011;5097;43.260;27.812;2022-07-10T05:49:12;3.03;;;2.78;;
10114;SDS011;5097;43.260;27.812;2022-07-10T05:51:37;2.97;;;2.75;;
10114;SDS011;5097;43.260;27.812;2022-07-10T05:54:06;3.75;;;3.45;;
10114;SDS011;5097;43.260;27.812;2022-07-10T05:56:31;2.58;;;2.17;;
10114;SDS011;5097;43.260;27.812;2022-07-10T05:58:55;3.38;;;2.50;;
10114;SDS011;5097;43.260;27.812;2022-07-10T06:01:19;2.88;;;2.70;;
10114;SDS011;5097;43.260;27.812;2022-07-10T06:03:43;3.97;;;2.72;;
10114;SDS011;5097;43.260;27.812;2022-07-10T06:06:07;2.80;;;2.55;;
10114;SDS011;5097;43.260;27.812;2022-07-10T06:08:33;5.43;;;2.50;;
10114;SDS011;5097;43.260;27.812;2022-07-10T06:10:57;2.47;;;2.35;;
10114;SDS011;5097;43.260;27.812;2022-07-10T06:13:21;3.33;;;2.95;;
10114;SDS011;5097;43.260;27.812;2022-07-10T06:15:45;2.80;;;2.60;;
10114;SDS011;5097;43.260;27.812;2022-07-10T06:18:10;2.85;;;2.40;;
10114;SDS011;5097;43.260;27.812;2022-07-10T06:20:34;3.33;;;2.97;;
10114;SDS011;5097;43.260;27.812;2022-07-10T06:22:58;5.70;;;2.92;;
10114;SDS011;5097;43.260;27.812;2022-07-10T06:25:24;3.72;;;3.42;;
10114;SDS011;5097;43.260;27.812;2022-07-10T06:27:48;3.67;;;3.38;;
10114;SDS011;5097;43.260;27.812;2022-07-10T06:30:12;4.63;;;3.88;;
10114;SDS011;5097;43.260;27.812;2022-07-10T06:32:36;5.30;;;4.80;;
10114;SDS011;5097;43.260;27.812;2022-07-10T06:35:01;7.38;;;6.65;;
10114;SDS011;5097;43.260;27.812;2022-07-10T06:37:26;7.88;;;6.47;;
10114;SDS011;5097;43.260;27.812;2022-07-10T06:39:50;7.75;;;6.22;;
10114;SDS011;5097;43.260;27.812;2022-07-10T06:42:16;8.82;;;5.75;;
10114;SDS011;5097;43.260;27.812;2022-07-10T06:44:43;8.15;;;5.60;;
10114;SDS011;5097;43.260;27.812;2022-07-10T06:47:08;5.38;;;4.65;;
10114;SDS011;5097;43.260;27.812;2022-07-10T06:49:50;7.82;;;5.35;;
10114;SDS011;5097;43.260;27.812;2022-07-10T06:52:16;6.32;;;4.35;;
10114;SDS011;5097;43.260;27.812;2022-07-10T06:54:40;5.03;;;4.22;;
10114;SDS011;5097;43.260;27.812;2022-07-10T06:57:05;6.00;;;5.35;;
10114;SDS011;5097;43.260;27.812;2022-07-10T06:59:31;5.10;;;3.78;;
10114;SDS011;5097;43.260;27.812;2022-07-10T07:01:55;6.25;;;5.13;;
10114;SDS011;5097;43.260;27.812;2022-07-10T07:04:20;5.50;;;3.97;;
10114;SDS011;5097;43.260;27.812;2022-07-10T07:06:44;4.88;;;3.60;;
10114;SDS011;5097;43.260;27.812;2022-07-10T07:09:09;3.25;;;2.95;;
10114;SDS011;5097;43.260;27.812;2022-07-10T07:11:33;2.78;;;2.58;;
10114;SDS011;5097;43.260;27.812;2022-07-10T07:13:57;2.58;;;2.38;;
10114;SDS011;5097;43.260;27.812;2022-07-10T07:16:22;3.30;;;2.95;;
10114;SDS011;5097;43.260;27.812;2022-07-10T07:19:00;3.58;;;2.70;;
10114;SDS011;5097;43.260;27.812;2022-07-10T07:21:25;3.05;;;2.85;;
10114;SDS011;5097;43.260;27.812;2022-07-10T07:24:06;2.90;;;2.70;;
10114;SDS011;5097;43.260;27.812;2022-07-10T07:26:30;5.57;;;2.53;;
10114;SDS011;5097;43.260;27.812;2022-07-10T07:28:55;8.23;;;2.65;;
10114;SDS011;5097;43.260;27.812;2022-07-10T07:31:19;2.83;;;2.63;;
10114;SDS011;5097;43.260;27.812;2022-07-10T07:33:45;3.83;;;2.78;;
10114;SDS011;5097;43.260;27.812;2022-07-10T07:36:09;3.30;;;2.97;;
10114;SDS011;5097;43.260;27.812;2022-07-10T07:38:33;3.00;;;2.80;;
10114;SDS011;5097;43.260;27.812;2022-07-10T07:40:57;1.90;;;1.73;;
10114;SDS011;5097;43.260;27.812;2022-07-10T07:43:21;4.65;;;2.10;;
10114;SDS011;5097;43.260;27.812;2022-07-10T07:45:45;4.07;;;2.22;;
10114;SDS011;5097;43.260;27.812;2022-07-10T07:48:10;3.08;;;2.40;;
10114;SDS011;5097;43.260;27.812;2022-07-10T07:50:36;2.17;;;2.08;;
10114;SDS011;5097;43.260;27.812;2022-07-10T07:53:01;3.17;;;2.70;;
10114;SDS011;5097;43.260;27.812;2022-07-10T07:55:27;3.63;;;2.55;;
10114;SDS011;5097;43.260;27.812;2022-07-10T07:57:52;3.63;;;3.33;;
10114;SDS011;5097;43.260;27.812;2022-07-10T08:00:17;3.83;;;3.10;;
10114;SDS011;5097;43.260;27.812;2022-07-10T08:02:42;2.25;;;2.00;;
10114;SDS011;5097;43.260;27.812;2022-07-10T08:05:07;2.50;;;2.30;;
10114;SDS011;5097;43.260;27.812;2022-07-10T08:07:34;2.80;;;2.60;;
10114;SDS011;5097;43.260;27.812;2022-07-10T08:09:59;2.63;;;2.42;;
10114;SDS011;5097;43.260;27.812;2022-07-10T08:12:24;2.50;;;2.40;;
10114;SDS011;5097;43.260;27.812;2022-07-10T08:14:48;3.08;;;2.78;;
10114;SDS011;5097;43.260;27.812;2022-07-10T08:17:12;2.30;;;2.20;;
10114;SDS011;5097;43.260;27.812;2022-07-10T08:19:36;2.70;;;2.50;;
10114;SDS011;5097;43.260;27.812;2022-07-10T08:22:01;2.60;;;2.40;;
10114;SDS011;5097;43.260;27.812;2022-07-10T08:24:26;5.75;;;2.83;;
10114;SDS011;5097;43.260;27.812;2022-07-10T08:26:50;2.33;;;2.20;;
10114;SDS011;5097;43.260;27.812;2022-07-10T08:29:14;2.20;;;2.10;;
10114;SDS011;5097;43.260;27.812;2022-07-10T08:31:38;3.00;;;2.80;;
10114;SDS011;5097;43.260;27.812;2022-07-10T08:34:03;2.10;;;2.00;;
10114;SDS011;5097;43.260;27.812;2022-07-10T08:36:27;2.42;;;2.33;;
10114;SDS011;5097;43.260;27.812;2022-07-10T08:39:03;3.05;;;2.40;;
10114;SDS011;5097;43.260;27.812;2022-07-10T08:41:28;2.70;;;2.50;;
10114;SDS011;5097;43.260;27.812;2022-07-10T08:43:54;2.58;;;2.40;;
10114;SDS011;5097;43.260;27.812;2022-07-10T08:46:19;3.63;;;2.63;;
10114;SDS011;5097;43.260;27.812;2022-07-10T08:48:43;2.83;;;2.63;;
10114;SDS011;5097;43.260;27.812;2022-07-10T08:51:11;2.45;;;2.25;;
10114;SDS011;5097;43.260;27.812;2022-07-10T08:53:44;2.92;;;2.72;;
10114;SDS011;5097;43.260;27.812;2022-07-10T08:56:12;3.33;;;3.00;;
10114;SDS011;5097;43.260;27.812;2022-07-10T08:58:37;7.18;;;3.10;;
10114;SDS011;5097;43.260;27.812;2022-07-10T09:01:03;3.58;;;2.90;;
10114;SDS011;5097;43.260;27.812;2022-07-10T09:03:27;3.63;;;2.53;;
10114;SDS011;5097;43.260;27.812;2022-07-10T09:05:54;2.75;;;2.08;;
10114;SDS011;5097;43.260;27.812;2022-07-10T09:08:21;6.75;;;3.40;;
10114;SDS011;5097;43.260;27.812;2022-07-10T09:10:45;2.42;;;2.22;;
10114;SDS011;5097;43.260;27.812;2022-07-10T09:13:09;2.40;;;2.20;;
10114;SDS011;5097;43.260;27.812;2022-07-10T09:15:35;2.53;;;2.33;;
10114;SDS011;5097;43.260;27.812;2022-07-10T09:17:59;2.47;;;1.95;;
10114;SDS011;5097;43.260;27.812;2022-07-10T09:20:25;3.13;;;2.50;;
10114;SDS011;5097;43.260;27.812;2022-07-10T09:22:52;1.80;;;1.70;;
10114;SDS011;5097;43.260;27.812;2022-07-10T09:25:16;2.08;;;1.92;;
10114;SDS011;5097;43.260;27.812;2022-07-10T09:27:50;1.92;;;1.63;;
10114;SDS011;5097;43.260;27.812;2022-07-10T09:30:17;3.50;;;2.30;;
10114;SDS011;5097;43.260;27.812;2022-07-10T09:32:58;2.08;;;1.98;;
10114;SDS011;5097;43.260;27.812;2022-07-10T09:35:39;2.13;;;2.03;;
10114;SDS011;5097;43.260;27.812;2022-07-10T09:38:30;2.22;;;1.67;;
10114;SDS011;5097;43.260;27.812;2022-07-10T09:41:20;1.80;;;1.70;;
10114;SDS011;5097;43.260;27.812;2022-07-10T09:43:46;3.38;;;2.65;;
10114;SDS011;5097;43.260;27.812;2022-07-10T09:46:11;2.33;;;2.20;;
10114;SDS011;5097;43.260;27.812;2022-07-10T09:48:37;1.88;;;1.77;;
10114;SDS011;5097;43.260;27.812;2022-07-10T09:51:02;1.73;;;1.63;;
10114;SDS011;5097;43.260;27.812;2022-07-10T09:53:31;3.80;;;3.35;;
10114;SDS011;5097;43.260;27.812;2022-07-10T09:55:56;2.05;;;1.92;;
10114;SDS011;5097;43.260;27.812;2022-07-10T09:58:24;2.78;;;1.70;;
10114;SDS011;5097;43.260;27.812;2022-07-10T10:00:54;3.55;;;1.98;;
10114;SDS011;5097;43.260;27.812;2022-07-10T10:03:21;2.85;;;1.70;;
10114;SDS011;5097;43.260;27.812;2022-07-10T10:05:52;1.80;;;1.70;;
10114;SDS011;5097;43.260;27.812;2022-07-10T10:08:19;2.00;;;1.77;;
10114;SDS011;5097;43.260;27.812;2022-07-10T10:10:46;1.70;;;1.60;;
10114;SDS011;5097;43.260;27.812;2022-07-10T10:13:11;1.85;;;1.75;;
10114;SDS011;5097;43.260;27.812;2022-07-10T10:15:40;1.98;;;1.77;;
10114;SDS011;5097;43.260;27.812;2022-07-10T10:18:06;1.35;;;1.35;;
10114;SDS011;5097;43.260;27.812;2022-07-10T10:20:32;1.77;;;1.67;;
10114;SDS011;5097;43.260;27.812;2022-07-10T10:23:05;1.80;;;1.70;;
10114;SDS011;5097;43.260;27.812;2022-07-10T10:25:33;1.92;;;1.63;;
10114;SDS011;5097;43.260;27.812;2022-07-10T10:27:58;8.93;;;2.17;;
10114;SDS011;5097;43.260;27.812;2022-07-10T10:30:23;2.40;;;1.60;;
10114;SDS011;5097;43.260;27.812;2022-07-10T10:32:47;1.88;;;1.73;;
10114;SDS011;5097;43.260;27.812;2022-07-10T10:35:11;2.38;;;1.40;;
10114;SDS011;5097;43.260;27.812;2022-07-10T10:38:07;1.40;;;1.40;;
10114;SDS011;5097;43.260;27.812;2022-07-10T10:40:31;1.48;;;1.38;;
10114;SDS011;5097;43.260;27.812;2022-07-10T10:42:56;1.60;;;1.50;;
10114;SDS011;5097;43.260;27.812;2022-07-10T10:45:23;1.65;;;1.55;;
10114;SDS011;5097;43.260;27.812;2022-07-10T10:47:58;1.63;;;1.50;;
10114;SDS011;5097;43.260;27.812;2022-07-10T10:50:45;1.73;;;1.50;;
10114;SDS011;5097;43.260;27.812;2022-07-10T10:53:15;3.13;;;1.80;;
10114;SDS011;5097;43.260;27.812;2022-07-10T10:55:40;1.60;;;1.50;;
10114;SDS011;5097;43.260;27.812;2022-07-10T10:58:11;1.52;;;1.42;;
10114;SDS011;5097;43.260;27.812;2022-07-10T11:00:40;1.67;;;1.58;;
10114;SDS011;5097;43.260;27.812;2022-07-10T11:03:17;1.55;;;1.45;;
10114;SDS011;5097;43.260;27.812;2022-07-10T11:05:43;1.65;;;1.40;;
10114;SDS011;5097;43.260;27.812;2022-07-10T11:08:08;1.50;;;1.50;;
10114;SDS011;5097;43.260;27.812;2022-07-10T11:10:34;2.65;;;1.90;;
10114;SDS011;5097;43.260;27.812;2022-07-10T11:13:05;1.80;;;1.70;;
10114;SDS011;5097;43.260;27.812;2022-07-10T11:15:30;2.05;;;1.95;;
10114;SDS011;5097;43.260;27.812;2022-07-10T11:17:55;1.95;;;1.85;;
10114;SDS011;5097;43.260;27.812;2022-07-10T11:20:19;2.15;;;1.52;;
10114;SDS011;5097;43.260;27.812;2022-07-10T11:22:46;1.60;;;1.27;;
10114;SDS011;5097;43.260;27.812;2022-07-10T11:25:22;1.65;;;1.55;;
10114;SDS011;5097;43.260;27.812;2022-07-10T11:28:06;1.40;;;1.40;;
10114;SDS011;5097;43.260;27.812;2022-07-10T11:30:42;1.73;;;1.63;;
10114;SDS011;5097;43.260;27.812;2022-07-10T11:33:07;1.30;;;1.25;;
10114;SDS011;5097;43.260;27.812;2022-07-10T11:35:31;1.65;;;1.55;;
10114;SDS011;5097;43.260;27.812;2022-07-10T11:37:55;1.60;;;1.50;;
10114;SDS011;5097;43.260;27.812;2022-07-10T11:40:20;1.55;;;1.45;;
10114;SDS011;5097;43.260;27.812;2022-07-10T11:42:47;1.60;;;1.50;;
10114;SDS011;5097;43.260;27.812;2022-07-10T11:45:30;1.45;;;1.45;;
10114;SDS011;5097;43.260;27.812;2022-07-10T11:47:56;2.03;;;1.73;;
10114;SDS011;5097;43.260;27.812;2022-07-10T11:50:20;1.90;;;1.63;;
10114;SDS011;5097;43.260;27.812;2022-07-10T11:52:45;2.42;;;1.88;;
10114;SDS011;5097;43.260;27.812;2022-07-10T11:55:13;2.25;;;1.50;;
10114;SDS011;5097;43.260;27.812;2022-07-10T11:57:38;1.80;;;1.70;;
10114;SDS011;5097;43.260;27.812;2022-07-10T12:00:05;1.38;;;1.30;;
10114;SDS011;5097;43.260;27.812;2022-07-10T12:02:35;2.22;;;1.75;;
10114;SDS011;5097;43.260;27.812;2022-07-10T12:04:59;1.15;;;1.15;;
10114;SDS011;5097;43.260;27.812;2022-07-10T12:07:23;2.85;;;1.50;;
10114;SDS011;5097;43.260;27.812;2022-07-10T12:09:52;1.30;;;1.30;;
10114;SDS011;5097;43.260;27.812;2022-07-10T12:12:16;1.10;;;1.10;;
10114;SDS011;5097;43.260;27.812;2022-07-10T12:14:46;2.78;;;1.23;;
10114;SDS011;5097;43.260;27.812;2022-07-10T12:17:10;3.90;;;1.63;;
10114;SDS011;5097;43.260;27.812;2022-07-10T12:19:37;1.65;;;1.55;;
10114;SDS011;5097;43.260;27.812;2022-07-10T12:22:02;1.35;;;1.35;;
10114;SDS011;5097;43.260;27.812;2022-07-10T12:24:28;1.83;;;1.73;;
10114;SDS011;5097;43.260;27.812;2022-07-10T12:26:53;1.48;;;1.38;;
10114;SDS011;5097;43.260;27.812;2022-07-10T12:29:19;1.60;;;1.50;;
10114;SDS011;5097;43.260;27.812;2022-07-10T12:31:44;4.03;;;1.63;;
10114;SDS011;5097;43.260;27.812;2022-07-10T12:34:10;2.40;;;1.60;;
10114;SDS011;5097;43.260;27.812;2022-07-10T12:36:44;1.20;;;1.20;;
10114;SDS011;5097;43.260;27.812;2022-07-10T12:39:09;3.38;;;1.88;;
10114;SDS011;5097;43.260;27.812;2022-07-10T12:41:34;1.45;;;1.45;;
10114;SDS011;5097;43.260;27.812;2022-07-10T12:43:58;1.75;;;1.65;;
10114;SDS011;5097;43.260;27.812;2022-07-10T12:46:23;3.10;;;1.50;;
10114;SDS011;5097;43.260;27.812;2022-07-10T12:49:00;1.50;;;1.40;;
10114;SDS011;5097;43.260;27.812;2022-07-10T12:51:27;1.85;;;1.40;;
10114;SDS011;5097;43.260;27.812;2022-07-10T12:56:56;1.33;;;1.20;;
10114;SDS011;5097;43.260;27.812;2022-07-10T12:59:20;1.45;;;1.38;;
10114;SDS011;5097;43.260;27.812;2022-07-10T13:01:45;1.42;;;1.33;;
10114;SDS011;5097;43.260;27.812;2022-07-10T13:04:09;1.20;;;1.20;;
10114;SDS011;5097;43.260;27.812;2022-07-10T13:06:34;3.13;;;1.83;;
10114;SDS011;5097;43.260;27.812;2022-07-10T13:08:59;1.30;;;1.27;;
10114;SDS011;5097;43.260;27.812;2022-07-10T13:11:24;1.45;;;1.45;;
10114;SDS011;5097;43.260;27.812;2022-07-10T13:13:49;1.45;;;1.23;;
10114;SDS011;5097;43.260;27.812;2022-07-10T13:16:14;2.20;;;2.00;;
10114;SDS011;5097;43.260;27.812;2022-07-10T13:18:38;1.45;;;1.35;;
10114;SDS011;5097;43.260;27.812;2022-07-10T13:21:07;1.48;;;1.38;;
10114;SDS011;5097;43.260;27.812;2022-07-10T13:23:31;1.50;;;1.50;;
10114;SDS011;5097;43.260;27.812;2022-07-10T13:25:55;1.15;;;1.15;;
10114;SDS011;5097;43.260;27.812;2022-07-10T13:28:22;2.35;;;1.27;;
10114;SDS011;5097;43.260;27.812;2022-07-10T13:30:47;1.30;;;1.20;;
10114;SDS011;5097;43.260;27.812;2022-07-10T13:33:11;1.10;;;1.10;;
10114;SDS011;5097;43.260;27.812;2022-07-10T13:35:35;1.23;;;1.23;;
10114;SDS011;5097;43.260;27.812;2022-07-10T13:38:00;1.42;;;1.35;;
10114;SDS011;5097;43.260;27.812;2022-07-10T13:40:25;1.50;;;1.40;;
10114;SDS011;5097;43.260;27.812;2022-07-10T13:42:50;1.17;;;1.17;;
10114;SDS011;5097;43.260;27.812;2022-07-10T13:45:17;2.38;;;1.52;;
10114;SDS011;5097;43.260;27.812;2022-07-10T13:47:41;2.17;;;1.40;;
10114;SDS011;5097;43.260;27.812;2022-07-10T13:50:06;1.92;;;1.83;;
10114;SDS011;5097;43.260;27.812;2022-07-10T13:52:31;1.58;;;1.48;;
10114;SDS011;5097;43.260;27.812;2022-07-10T13:54:55;1.20;;;1.20;;
10114;SDS011;5097;43.260;27.812;2022-07-10T13:57:20;1.35;;;1.30;;
10114;SDS011;5097;43.260;27.812;2022-07-10T13:59:44;1.92;;;1.83;;
10114;SDS011;5097;43.260;27.812;2022-07-10T14:02:10;1.48;;;1.38;;
10114;SDS011;5097;43.260;27.812;2022-07-10T14:04:38;1.80;;;1.70;;
10114;SDS011;5097;43.260;27.812;2022-07-10T14:07:03;1.50;;;1.50;;
10114;SDS011;5097;43.260;27.812;2022-07-10T14:09:28;1.75;;;1.65;;
10114;SDS011;5097;43.260;27.812;2022-07-10T14:11:54;1.85;;;1.75;;
10114;SDS011;5097;43.260;27.812;2022-07-10T14:14:18;2.35;;;1.60;;
10114;SDS011;5097;43.260;27.812;2022-07-10T14:16:44;2.30;;;1.60;;
10114;SDS011;5097;43.260;27.812;2022-07-10T14:19:10;1.65;;;1.55;;
10114;SDS011;5097;43.260;27.812;2022-07-10T14:21:34;3.33;;;1.60;;
10114;SDS011;5097;43.260;27.812;2022-07-10T14:23:58;1.63;;;1.52;;
10114;SDS011;5097;43.260;27.812;2022-07-10T14:26:22;2.78;;;1.30;;
10114;SDS011;5097;43.260;27.812;2022-07-10T14:28:46;2.08;;;1.70;;
10114;SDS011;5097;43.260;27.812;2022-07-10T14:31:11;1.50;;;1.50;;
10114;SDS011;5097;43.260;27.812;2022-07-10T14:33:35;1.58;;;1.40;;
10114;SDS011;5097;43.260;27.812;2022-07-10T14:36:01;1.38;;;1.27;;
10114;SDS011;5097;43.260;27.812;2022-07-10T14:38:26;1.95;;;1.40;;
10114;SDS011;5097;43.260;27.812;2022-07-10T14:40:50;1.25;;;1.25;;
10114;SDS011;5097;43.260;27.812;2022-07-10T14:43:15;1.80;;;1.70;;